sensor_id;sensor_type;location;lat;lon;timestamp;P1;durP1;ratioP1;P2;durP2;ratioP2
61317;SDS011;47201;40.428;-8.436;2023-07-29T00:03:31;5.63;;;2.70;;
61317;SDS011;47201;40.428;-8.436;2023-07-29T00:05:32;6.50;;;2.85;;
61317;SDS011;47201;40.428;-8.436;2023-07-29T00:09:33;6.60;;;2.73;;
61317;SDS011;47201;40.428;-8.436;2023-07-29T00:13:35;4.78;;;2.90;;
61317;SDS011;47201;40.428;-8.436;2023-07-29T00:17:36;5.40;;;3.13;;
61317;SDS011;47201;40.428;-8.436;2023-07-29T00:21:37;8.50;;;3.20;;
61317;SDS011;47201;40.428;-8.436;2023-07-29T00:23:38;9.10;;;3.47;;
61317;SDS011;47201;40.428;-8.436;2023-07-29T00:27:39;9.27;;;3.93;;
61317;SDS011;47201;40.428;-8.436;2023-07-29T00:31:40;10.63;;;3.57;;
61317;SDS011;47201;40.428;-8.436;2023-07-29T00:35:42;11.03;;;3.90;;
61317;SDS011;47201;40.428;-8.436;2023-07-29T00:39:45;9.25;;;3.55;;
61317;SDS011;47201;40.428;-8.436;2023-07-29T00:43:46;9.00;;;3.90;;
61317;SDS011;47201;40.428;-8.436;2023-07-29T00:47:48;7.68;;;3.92;;
61317;SDS011;47201;40.428;-8.436;2023-07-29T00:49:50;9.38;;;3.78;;
61317;SDS011;47201;40.428;-8.436;2023-07-29T00:53:52;9.43;;;3.67;;
61317;SDS011;47201;40.428;-8.436;2023-07-29T00:55:53;8.57;;;3.55;;
61317;SDS011;47201;40.428;-8.436;2023-07-29T00:57:56;10.45;;;3.72;;
61317;SDS011;47201;40.428;-8.436;2023-07-29T00:59:57;5.65;;;3.20;;
61317;SDS011;47201;40.428;-8.436;2023-07-29T01:01:59;13.65;;;4.20;;
61317;SDS011;47201;40.428;-8.436;2023-07-29T01:08:29;8.32;;;3.67;;
61317;SDS011;47201;40.428;-8.436;2023-07-29T01:12:58;7.95;;;3.40;;
61317;SDS011;47201;40.428;-8.436;2023-07-29T01:17:23;6.75;;;3.50;;
61317;SDS011;47201;40.428;-8.436;2023-07-29T01:19:32;7.88;;;3.72;;
61317;SDS011;47201;40.428;-8.436;2023-07-29T01:21:57;7.90;;;3.50;;
61317;SDS011;47201;40.428;-8.436;2023-07-29T01:23:59;5.13;;;3.35;;
61317;SDS011;47201;40.428;-8.436;2023-07-29T01:26:00;6.57;;;4.00;;
61317;SDS011;47201;40.428;-8.436;2023-07-29T01:28:01;9.43;;;4.22;;
61317;SDS011;47201;40.428;-8.436;2023-07-29T01:32:46;7.93;;;4.30;;
61317;SDS011;47201;40.428;-8.436;2023-07-29T01:34:41;8.57;;;4.10;;
61317;SDS011;47201;40.428;-8.436;2023-07-29T01:36:48;6.38;;;3.85;;
61317;SDS011;47201;40.428;-8.436;2023-07-29T01:38:51;8.10;;;4.07;;
61317;SDS011;47201;40.428;-8.436;2023-07-29T01:40:55;8.85;;;3.50;;
61317;SDS011;47201;40.428;-8.436;2023-07-29T01:42:56;6.20;;;3.00;;
61317;SDS011;47201;40.428;-8.436;2023-07-29T01:44:58;8.52;;;4.00;;
61317;SDS011;47201;40.428;-8.436;2023-07-29T01:47:00;10.15;;;3.85;;
61317;SDS011;47201;40.428;-8.436;2023-07-29T01:51:01;7.90;;;3.83;;
61317;SDS011;47201;40.428;-8.436;2023-07-29T01:55:02;6.47;;;3.27;;
61317;SDS011;47201;40.428;-8.436;2023-07-29T01:57:03;6.93;;;3.28;;
61317;SDS011;47201;40.428;-8.436;2023-07-29T02:01:04;9.03;;;3.77;;
61317;SDS011;47201;40.428;-8.436;2023-07-29T02:05:06;7.50;;;3.43;;
61317;SDS011;47201;40.428;-8.436;2023-07-29T02:09:07;9.13;;;4.10;;
61317;SDS011;47201;40.428;-8.436;2023-07-29T02:13:09;9.00;;;3.53;;
61317;SDS011;47201;40.428;-8.436;2023-07-29T02:15:09;4.63;;;3.40;;
61317;SDS011;47201;40.428;-8.436;2023-07-29T02:17:10;4.88;;;3.30;;
61317;SDS011;47201;40.428;-8.436;2023-07-29T02:21:11;10.23;;;4.23;;
61317;SDS011;47201;40.428;-8.436;2023-07-29T02:25:12;6.93;;;4.17;;
61317;SDS011;47201;40.428;-8.436;2023-07-29T02:27:13;8.38;;;4.00;;
61317;SDS011;47201;40.428;-8.436;2023-07-29T02:31:15;8.33;;;4.13;;
61317;SDS011;47201;40.428;-8.436;2023-07-29T02:33:19;11.48;;;4.10;;
61317;SDS011;47201;40.428;-8.436;2023-07-29T02:37:20;10.03;;;4.03;;
61317;SDS011;47201;40.428;-8.436;2023-07-29T02:41:22;10.53;;;4.40;;
61317;SDS011;47201;40.428;-8.436;2023-07-29T02:43:22;6.75;;;3.88;;
61317;SDS011;47201;40.428;-8.436;2023-07-29T02:47:23;8.00;;;3.60;;
61317;SDS011;47201;40.428;-8.436;2023-07-29T02:51:28;8.45;;;3.40;;
61317;SDS011;47201;40.428;-8.436;2023-07-29T02:55:29;10.40;;;3.83;;
61317;SDS011;47201;40.428;-8.436;2023-07-29T02:57:29;6.80;;;3.67;;
61317;SDS011;47201;40.428;-8.436;2023-07-29T03:01:31;6.57;;;4.10;;
61317;SDS011;47201;40.428;-8.436;2023-07-29T03:03:31;7.82;;;4.50;;
61317;SDS011;47201;40.428;-8.436;2023-07-29T03:07:33;9.87;;;4.67;;
61317;SDS011;47201;40.428;-8.436;2023-07-29T03:09:34;9.10;;;4.80;;
61317;SDS011;47201;40.428;-8.436;2023-07-29T03:13:35;9.50;;;4.53;;
61317;SDS011;47201;40.428;-8.436;2023-07-29T03:15:36;10.70;;;4.72;;
61317;SDS011;47201;40.428;-8.436;2023-07-29T03:17:37;11.50;;;4.22;;
61317;SDS011;47201;40.428;-8.436;2023-07-29T03:19:39;9.75;;;4.35;;
61317;SDS011;47201;40.428;-8.436;2023-07-29T03:23:40;10.63;;;5.03;;
61317;SDS011;47201;40.428;-8.436;2023-07-29T03:25:41;9.18;;;4.65;;
61317;SDS011;47201;40.428;-8.436;2023-07-29T03:27:41;9.20;;;5.05;;
61317;SDS011;47201;40.428;-8.436;2023-07-29T03:29:42;10.63;;;5.07;;
61317;SDS011;47201;40.428;-8.436;2023-07-29T03:31:43;13.93;;;5.05;;
61317;SDS011;47201;40.428;-8.436;2023-07-29T03:35:44;10.77;;;5.13;;
61317;SDS011;47201;40.428;-8.436;2023-07-29T03:39:46;8.18;;;4.32;;
61317;SDS011;47201;40.428;-8.436;2023-07-29T03:41:47;19.48;;;5.80;;
61317;SDS011;47201;40.428;-8.436;2023-07-29T03:43:48;17.52;;;5.70;;
61317;SDS011;47201;40.428;-8.436;2023-07-29T03:47:49;9.37;;;4.73;;
61317;SDS011;47201;40.428;-8.436;2023-07-29T03:51:57;8.98;;;4.50;;
61317;SDS011;47201;40.428;-8.436;2023-07-29T03:53:57;13.85;;;4.88;;
61317;SDS011;47201;40.428;-8.436;2023-07-29T03:55:58;10.95;;;4.40;;
61317;SDS011;47201;40.428;-8.436;2023-07-29T03:57:59;9.43;;;5.05;;
61317;SDS011;47201;40.428;-8.436;2023-07-29T04:00:00;13.45;;;5.22;;
61317;SDS011;47201;40.428;-8.436;2023-07-29T04:02:03;8.85;;;4.70;;
61317;SDS011;47201;40.428;-8.436;2023-07-29T04:06:05;11.27;;;5.05;;
61317;SDS011;47201;40.428;-8.436;2023-07-29T04:08:07;14.15;;;4.97;;
61317;SDS011;47201;40.428;-8.436;2023-07-29T04:10:08;12.05;;;5.20;;
61317;SDS011;47201;40.428;-8.436;2023-07-29T04:14:10;11.43;;;5.22;;
61317;SDS011;47201;40.428;-8.436;2023-07-29T04:16:11;9.52;;;5.18;;
61317;SDS011;47201;40.428;-8.436;2023-07-29T04:18:11;10.20;;;5.18;;
61317;SDS011;47201;40.428;-8.436;2023-07-29T04:20:12;10.40;;;4.82;;
61317;SDS011;47201;40.428;-8.436;2023-07-29T04:22:13;10.13;;;4.93;;
61317;SDS011;47201;40.428;-8.436;2023-07-29T04:24:16;9.77;;;4.93;;
61317;SDS011;47201;40.428;-8.436;2023-07-29T04:26:16;10.38;;;4.72;;
61317;SDS011;47201;40.428;-8.436;2023-07-29T04:30:17;10.03;;;4.63;;
61317;SDS011;47201;40.428;-8.436;2023-07-29T04:34:19;12.60;;;4.63;;
61317;SDS011;47201;40.428;-8.436;2023-07-29T04:36:19;10.38;;;5.22;;
61317;SDS011;47201;40.428;-8.436;2023-07-29T04:38:20;13.65;;;4.60;;
61317;SDS011;47201;40.428;-8.436;2023-07-29T04:42:23;10.55;;;4.65;;
61317;SDS011;47201;40.428;-8.436;2023-07-29T04:44:23;7.95;;;4.50;;
61317;SDS011;47201;40.428;-8.436;2023-07-29T04:46:27;6.63;;;4.72;;
61317;SDS011;47201;40.428;-8.436;2023-07-29T04:48:28;8.07;;;4.60;;
61317;SDS011;47201;40.428;-8.436;2023-07-29T04:50:29;14.98;;;5.45;;
61317;SDS011;47201;40.428;-8.436;2023-07-29T04:52:30;10.63;;;5.18;;
61317;SDS011;47201;40.428;-8.436;2023-07-29T04:54:31;12.90;;;4.85;;
61317;SDS011;47201;40.428;-8.436;2023-07-29T04:56:32;10.30;;;4.40;;
61317;SDS011;47201;40.428;-8.436;2023-07-29T04:58:32;8.95;;;5.05;;
61317;SDS011;47201;40.428;-8.436;2023-07-29T05:00:35;12.73;;;5.18;;
61317;SDS011;47201;40.428;-8.436;2023-07-29T05:02:37;8.48;;;5.60;;
61317;SDS011;47201;40.428;-8.436;2023-07-29T05:04:38;11.00;;;5.60;;
61317;SDS011;47201;40.428;-8.436;2023-07-29T05:08:39;18.17;;;6.00;;
61317;SDS011;47201;40.428;-8.436;2023-07-29T05:12:40;10.73;;;5.80;;
61317;SDS011;47201;40.428;-8.436;2023-07-29T05:14:41;12.05;;;5.60;;
61317;SDS011;47201;40.428;-8.436;2023-07-29T05:18:43;13.13;;;6.28;;
61317;SDS011;47201;40.428;-8.436;2023-07-29T05:22:44;14.27;;;6.20;;
61317;SDS011;47201;40.428;-8.436;2023-07-29T05:24:44;11.68;;;5.60;;
61317;SDS011;47201;40.428;-8.436;2023-07-29T05:26:45;13.75;;;5.65;;
61317;SDS011;47201;40.428;-8.436;2023-07-29T05:28:46;11.30;;;5.97;;
61317;SDS011;47201;40.428;-8.436;2023-07-29T05:30:47;11.73;;;5.43;;
61317;SDS011;47201;40.428;-8.436;2023-07-29T05:32:48;16.23;;;6.50;;
61317;SDS011;47201;40.428;-8.436;2023-07-29T05:34:49;10.10;;;6.00;;
61317;SDS011;47201;40.428;-8.436;2023-07-29T05:36:49;14.10;;;5.80;;
61317;SDS011;47201;40.428;-8.436;2023-07-29T05:38:51;15.20;;;6.28;;
61317;SDS011;47201;40.428;-8.436;2023-07-29T05:40:52;13.10;;;5.53;;
61317;SDS011;47201;40.428;-8.436;2023-07-29T05:42:53;9.77;;;4.90;;
61317;SDS011;47201;40.428;-8.436;2023-07-29T05:44:53;8.45;;;4.50;;
61317;SDS011;47201;40.428;-8.436;2023-07-29T05:46:57;10.23;;;4.90;;
61317;SDS011;47201;40.428;-8.436;2023-07-29T05:48:58;9.75;;;5.40;;
61317;SDS011;47201;40.428;-8.436;2023-07-29T05:50:59;11.73;;;5.70;;
61317;SDS011;47201;40.428;-8.436;2023-07-29T05:55:00;10.80;;;6.20;;
61317;SDS011;47201;40.428;-8.436;2023-07-29T05:57:01;11.77;;;6.78;;
61317;SDS011;47201;40.428;-8.436;2023-07-29T06:01:03;15.02;;;7.00;;
61317;SDS011;47201;40.428;-8.436;2023-07-29T06:05:04;14.40;;;8.07;;
61317;SDS011;47201;40.428;-8.436;2023-07-29T06:07:06;16.30;;;8.10;;
61317;SDS011;47201;40.428;-8.436;2023-07-29T06:09:07;7.65;;;6.88;;
61317;SDS011;47201;40.428;-8.436;2023-07-29T06:11:08;13.13;;;7.20;;
61317;SDS011;47201;40.428;-8.436;2023-07-29T06:15:09;11.03;;;7.80;;
61317;SDS011;47201;40.428;-8.436;2023-07-29T06:19:11;12.55;;;8.93;;
61317;SDS011;47201;40.428;-8.436;2023-07-29T06:21:13;21.27;;;9.82;;
61317;SDS011;47201;40.428;-8.436;2023-07-29T06:23:17;17.95;;;9.00;;
61317;SDS011;47201;40.428;-8.436;2023-07-29T06:25:19;16.13;;;8.13;;
61317;SDS011;47201;40.428;-8.436;2023-07-29T06:29:20;11.53;;;6.73;;
61317;SDS011;47201;40.428;-8.436;2023-07-29T06:31:21;9.85;;;5.82;;
61317;SDS011;47201;40.428;-8.436;2023-07-29T06:35:23;9.43;;;6.30;;
61317;SDS011;47201;40.428;-8.436;2023-07-29T06:39:27;12.40;;;6.80;;
61317;SDS011;47201;40.428;-8.436;2023-07-29T06:43:28;11.83;;;7.10;;
61317;SDS011;47201;40.428;-8.436;2023-07-29T06:45:29;10.55;;;6.00;;
61317;SDS011;47201;40.428;-8.436;2023-07-29T06:49:30;10.47;;;5.60;;
61317;SDS011;47201;40.428;-8.436;2023-07-29T06:53:34;12.02;;;5.80;;
61317;SDS011;47201;40.428;-8.436;2023-07-29T06:57:36;12.60;;;6.90;;
61317;SDS011;47201;40.428;-8.436;2023-07-29T07:01:37;7.93;;;6.00;;
61317;SDS011;47201;40.428;-8.436;2023-07-29T07:05:38;10.53;;;6.60;;
61317;SDS011;47201;40.428;-8.436;2023-07-29T07:09:39;10.53;;;6.30;;
61317;SDS011;47201;40.428;-8.436;2023-07-29T07:13:40;13.20;;;7.93;;
61317;SDS011;47201;40.428;-8.436;2023-07-29T07:17:41;18.20;;;9.47;;
61317;SDS011;47201;40.428;-8.436;2023-07-29T07:21:43;16.57;;;9.23;;
61317;SDS011;47201;40.428;-8.436;2023-07-29T07:25:44;13.80;;;7.80;;
61317;SDS011;47201;40.428;-8.436;2023-07-29T07:29:45;22.40;;;8.33;;
61317;SDS011;47201;40.428;-8.436;2023-07-29T07:33:50;11.15;;;6.78;;
61317;SDS011;47201;40.428;-8.436;2023-07-29T07:37:51;9.90;;;5.97;;
61317;SDS011;47201;40.428;-8.436;2023-07-29T07:39:52;11.60;;;6.20;;
61317;SDS011;47201;40.428;-8.436;2023-07-29T07:41:52;15.57;;;6.32;;
61317;SDS011;47201;40.428;-8.436;2023-07-29T07:45:57;13.63;;;6.57;;
61317;SDS011;47201;40.428;-8.436;2023-07-29T07:47:59;16.80;;;7.50;;
61317;SDS011;47201;40.428;-8.436;2023-07-29T07:49:59;12.30;;;6.90;;
61317;SDS011;47201;40.428;-8.436;2023-07-29T07:52:00;11.07;;;7.80;;
61317;SDS011;47201;40.428;-8.436;2023-07-29T07:54:01;14.90;;;8.13;;
61317;SDS011;47201;40.428;-8.436;2023-07-29T07:56:01;10.98;;;7.63;;
61317;SDS011;47201;40.428;-8.436;2023-07-29T07:58:02;16.13;;;8.80;;
61317;SDS011;47201;40.428;-8.436;2023-07-29T08:02:13;12.10;;;8.90;;
61317;SDS011;47201;40.428;-8.436;2023-07-29T08:04:13;12.88;;;8.88;;
61317;SDS011;47201;40.428;-8.436;2023-07-29T08:06:14;14.60;;;8.93;;
61317;SDS011;47201;40.428;-8.436;2023-07-29T08:08:15;10.98;;;8.63;;
61317;SDS011;47201;40.428;-8.436;2023-07-29T08:10:16;16.45;;;7.22;;
61317;SDS011;47201;40.428;-8.436;2023-07-29T08:12:16;10.18;;;7.28;;
61317;SDS011;47201;40.428;-8.436;2023-07-29T08:14:17;8.43;;;6.50;;
61317;SDS011;47201;40.428;-8.436;2023-07-29T08:16:17;6.70;;;6.10;;
61317;SDS011;47201;40.428;-8.436;2023-07-29T08:18:18;10.25;;;5.35;;
61317;SDS011;47201;40.428;-8.436;2023-07-29T08:20:19;10.52;;;5.20;;
61317;SDS011;47201;40.428;-8.436;2023-07-29T08:22:20;11.40;;;5.13;;
61317;SDS011;47201;40.428;-8.436;2023-07-29T08:24:21;3.85;;;3.55;;
61317;SDS011;47201;40.428;-8.436;2023-07-29T08:26:21;4.80;;;3.38;;
61317;SDS011;47201;40.428;-8.436;2023-07-29T08:28:22;4.32;;;3.20;;
61317;SDS011;47201;40.428;-8.436;2023-07-29T08:30:24;4.60;;;3.00;;
61317;SDS011;47201;40.428;-8.436;2023-07-29T08:32:27;4.53;;;3.13;;
61317;SDS011;47201;40.428;-8.436;2023-07-29T08:34:28;3.63;;;3.33;;
61317;SDS011;47201;40.428;-8.436;2023-07-29T08:36:29;4.63;;;3.40;;
61317;SDS011;47201;40.428;-8.436;2023-07-29T08:38:29;4.78;;;3.20;;
61317;SDS011;47201;40.428;-8.436;2023-07-29T08:40:30;3.35;;;3.15;;
61317;SDS011;47201;40.428;-8.436;2023-07-29T08:42:32;5.18;;;3.25;;
61317;SDS011;47201;40.428;-8.436;2023-07-29T08:44:41;3.92;;;3.25;;
61317;SDS011;47201;40.428;-8.436;2023-07-29T08:46:43;4.40;;;3.53;;
61317;SDS011;47201;40.428;-8.436;2023-07-29T08:48:44;6.47;;;3.35;;
61317;SDS011;47201;40.428;-8.436;2023-07-29T08:50:46;3.70;;;3.35;;
61317;SDS011;47201;40.428;-8.436;2023-07-29T08:52:47;3.65;;;2.72;;
61317;SDS011;47201;40.428;-8.436;2023-07-29T08:54:49;5.35;;;3.42;;
61317;SDS011;47201;40.428;-8.436;2023-07-29T08:56:51;8.10;;;3.95;;
61317;SDS011;47201;40.428;-8.436;2023-07-29T08:58:52;7.05;;;4.15;;
61317;SDS011;47201;40.428;-8.436;2023-07-29T09:00:53;6.80;;;4.00;;
61317;SDS011;47201;40.428;-8.436;2023-07-29T09:02:53;11.23;;;4.20;;
61317;SDS011;47201;40.428;-8.436;2023-07-29T09:04:58;5.30;;;3.80;;
61317;SDS011;47201;40.428;-8.436;2023-07-29T09:06:58;5.45;;;3.83;;
61317;SDS011;47201;40.428;-8.436;2023-07-29T09:09:00;5.43;;;3.90;;
61317;SDS011;47201;40.428;-8.436;2023-07-29T09:11:01;4.20;;;3.80;;
61317;SDS011;47201;40.428;-8.436;2023-07-29T09:13:03;4.72;;;3.60;;
61317;SDS011;47201;40.428;-8.436;2023-07-29T09:15:04;5.47;;;3.97;;
61317;SDS011;47201;40.428;-8.436;2023-07-29T09:17:09;5.85;;;3.70;;
61317;SDS011;47201;40.428;-8.436;2023-07-29T09:19:10;6.15;;;3.45;;
61317;SDS011;47201;40.428;-8.436;2023-07-29T09:21:11;5.70;;;4.00;;
61317;SDS011;47201;40.428;-8.436;2023-07-29T09:23:11;6.50;;;3.47;;
61317;SDS011;47201;40.428;-8.436;2023-07-29T09:25:12;5.65;;;3.20;;
61317;SDS011;47201;40.428;-8.436;2023-07-29T09:27:26;5.47;;;3.35;;
61317;SDS011;47201;40.428;-8.436;2023-07-29T09:29:28;4.85;;;3.05;;
61317;SDS011;47201;40.428;-8.436;2023-07-29T09:31:29;11.02;;;3.20;;
61317;SDS011;47201;40.428;-8.436;2023-07-29T09:33:32;6.03;;;2.90;;
61317;SDS011;47201;40.428;-8.436;2023-07-29T09:35:37;2.40;;;2.20;;
61317;SDS011;47201;40.428;-8.436;2023-07-29T09:37:38;3.05;;;2.28;;
61317;SDS011;47201;40.428;-8.436;2023-07-29T09:39:40;2.65;;;2.45;;
61317;SDS011;47201;40.428;-8.436;2023-07-29T09:41:47;6.20;;;4.55;;
61317;SDS011;47201;40.428;-8.436;2023-07-29T09:43:51;12.50;;;6.57;;
61317;SDS011;47201;40.428;-8.436;2023-07-29T09:46:02;9.18;;;4.72;;
61317;SDS011;47201;40.428;-8.436;2023-07-29T09:48:04;6.43;;;3.78;;
61317;SDS011;47201;40.428;-8.436;2023-07-29T09:50:09;3.70;;;2.95;;
61317;SDS011;47201;40.428;-8.436;2023-07-29T09:52:10;3.95;;;2.08;;
61317;SDS011;47201;40.428;-8.436;2023-07-29T09:54:10;3.03;;;1.85;;
61317;SDS011;47201;40.428;-8.436;2023-07-29T09:56:13;3.28;;;2.00;;
61317;SDS011;47201;40.428;-8.436;2023-07-29T09:58:18;4.13;;;2.40;;
61317;SDS011;47201;40.428;-8.436;2023-07-29T10:00:20;3.80;;;1.98;;
61317;SDS011;47201;40.428;-8.436;2023-07-29T10:02:21;3.10;;;2.10;;
61317;SDS011;47201;40.428;-8.436;2023-07-29T10:04:22;2.75;;;1.80;;
61317;SDS011;47201;40.428;-8.436;2023-07-29T10:06:23;2.03;;;1.92;;
61317;SDS011;47201;40.428;-8.436;2023-07-29T10:08:25;2.10;;;1.90;;
61317;SDS011;47201;40.428;-8.436;2023-07-29T10:10:27;2.35;;;2.15;;
61317;SDS011;47201;40.428;-8.436;2023-07-29T10:12:28;4.38;;;3.15;;
61317;SDS011;47201;40.428;-8.436;2023-07-29T10:14:30;4.72;;;2.60;;
61317;SDS011;47201;40.428;-8.436;2023-07-29T10:16:31;2.40;;;1.90;;
61317;SDS011;47201;40.428;-8.436;2023-07-29T10:18:33;1.17;;;1.17;;
61317;SDS011;47201;40.428;-8.436;2023-07-29T10:20:34;2.38;;;1.33;;
61317;SDS011;47201;40.428;-8.436;2023-07-29T10:22:36;1.45;;;0.93;;
61317;SDS011;47201;40.428;-8.436;2023-07-29T10:24:38;1.08;;;1.00;;
61317;SDS011;47201;40.428;-8.436;2023-07-29T10:26:42;0.88;;;0.88;;
61317;SDS011;47201;40.428;-8.436;2023-07-29T10:28:47;1.15;;;0.80;;
61317;SDS011;47201;40.428;-8.436;2023-07-29T10:30:48;0.70;;;0.70;;
61317;SDS011;47201;40.428;-8.436;2023-07-29T10:32:50;0.90;;;0.90;;
61317;SDS011;47201;40.428;-8.436;2023-07-29T10:34:53;2.95;;;1.30;;
61317;SDS011;47201;40.428;-8.436;2023-07-29T10:36:54;2.67;;;1.30;;
61317;SDS011;47201;40.428;-8.436;2023-07-29T10:38:58;1.23;;;1.13;;
61317;SDS011;47201;40.428;-8.436;2023-07-29T10:40:58;1.20;;;1.10;;
61317;SDS011;47201;40.428;-8.436;2023-07-29T10:43:02;0.95;;;0.90;;
61317;SDS011;47201;40.428;-8.436;2023-07-29T10:45:21;1.10;;;1.00;;
61317;SDS011;47201;40.428;-8.436;2023-07-29T10:47:25;1.00;;;1.00;;
61317;SDS011;47201;40.428;-8.436;2023-07-29T10:49:28;0.88;;;0.88;;
61317;SDS011;47201;40.428;-8.436;2023-07-29T10:51:34;2.25;;;0.88;;
61317;SDS011;47201;40.428;-8.436;2023-07-29T10:53:36;0.90;;;0.90;;
61317;SDS011;47201;40.428;-8.436;2023-07-29T10:55:37;0.93;;;0.90;;
61317;SDS011;47201;40.428;-8.436;2023-07-29T10:57:38;1.08;;;1.08;;
61317;SDS011;47201;40.428;-8.436;2023-07-29T10:59:43;1.20;;;1.10;;
61317;SDS011;47201;40.428;-8.436;2023-07-29T11:01:59;1.35;;;1.27;;
61317;SDS011;47201;40.428;-8.436;2023-07-29T11:06:30;2.03;;;1.63;;
61317;SDS011;47201;40.428;-8.436;2023-07-29T11:08:31;1.50;;;1.40;;
61317;SDS011;47201;40.428;-8.436;2023-07-29T11:10:32;1.45;;;1.35;;
61317;SDS011;47201;40.428;-8.436;2023-07-29T11:14:51;1.60;;;1.50;;
61317;SDS011;47201;40.428;-8.436;2023-07-29T11:16:52;2.40;;;1.20;;
61317;SDS011;47201;40.428;-8.436;2023-07-29T11:18:53;1.02;;;1.00;;
61317;SDS011;47201;40.428;-8.436;2023-07-29T11:20:58;1.23;;;1.13;;
61317;SDS011;47201;40.428;-8.436;2023-07-29T11:23:02;1.20;;;1.20;;
61317;SDS011;47201;40.428;-8.436;2023-07-29T11:25:04;1.00;;;1.00;;
61317;SDS011;47201;40.428;-8.436;2023-07-29T11:27:11;1.40;;;1.20;;
61317;SDS011;47201;40.428;-8.436;2023-07-29T11:29:12;0.82;;;0.82;;
61317;SDS011;47201;40.428;-8.436;2023-07-29T11:31:12;1.10;;;1.00;;
61317;SDS011;47201;40.428;-8.436;2023-07-29T11:33:16;2.45;;;1.00;;
61317;SDS011;47201;40.428;-8.436;2023-07-29T11:35:18;2.90;;;1.20;;
61317;SDS011;47201;40.428;-8.436;2023-07-29T11:37:19;1.45;;;1.35;;
61317;SDS011;47201;40.428;-8.436;2023-07-29T11:39:21;1.38;;;1.30;;
61317;SDS011;47201;40.428;-8.436;2023-07-29T11:41:22;1.13;;;1.13;;
61317;SDS011;47201;40.428;-8.436;2023-07-29T11:43:23;1.20;;;1.20;;
61317;SDS011;47201;40.428;-8.436;2023-07-29T11:45:23;1.35;;;1.25;;
61317;SDS011;47201;40.428;-8.436;2023-07-29T11:47:27;1.42;;;1.13;;
61317;SDS011;47201;40.428;-8.436;2023-07-29T11:49:28;3.03;;;1.23;;
61317;SDS011;47201;40.428;-8.436;2023-07-29T11:51:28;1.73;;;1.20;;
61317;SDS011;47201;40.428;-8.436;2023-07-29T11:53:29;1.20;;;1.20;;
61317;SDS011;47201;40.428;-8.436;2023-07-29T11:55:31;1.75;;;1.08;;
61317;SDS011;47201;40.428;-8.436;2023-07-29T11:57:35;1.10;;;1.10;;
61317;SDS011;47201;40.428;-8.436;2023-07-29T11:59:37;1.20;;;1.00;;
61317;SDS011;47201;40.428;-8.436;2023-07-29T12:01:38;1.20;;;1.20;;
61317;SDS011;47201;40.428;-8.436;2023-07-29T12:03:39;1.10;;;1.10;;
61317;SDS011;47201;40.428;-8.436;2023-07-29T12:05:39;1.80;;;1.27;;
61317;SDS011;47201;40.428;-8.436;2023-07-29T12:07:41;0.90;;;0.90;;
61317;SDS011;47201;40.428;-8.436;2023-07-29T12:09:43;2.83;;;1.20;;
61317;SDS011;47201;40.428;-8.436;2023-07-29T12:11:44;1.30;;;1.20;;
61317;SDS011;47201;40.428;-8.436;2023-07-29T12:13:45;1.27;;;1.25;;
61317;SDS011;47201;40.428;-8.436;2023-07-29T12:15:47;1.23;;;1.20;;
61317;SDS011;47201;40.428;-8.436;2023-07-29T12:17:48;1.25;;;1.25;;
61317;SDS011;47201;40.428;-8.436;2023-07-29T12:19:48;3.83;;;1.33;;
61317;SDS011;47201;40.428;-8.436;2023-07-29T12:21:49;1.20;;;1.20;;
61317;SDS011;47201;40.428;-8.436;2023-07-29T12:23:49;1.45;;;1.30;;
61317;SDS011;47201;40.428;-8.436;2023-07-29T12:25:57;4.78;;;1.40;;
61317;SDS011;47201;40.428;-8.436;2023-07-29T12:28:05;1.60;;;1.50;;
61317;SDS011;47201;40.428;-8.436;2023-07-29T12:30:07;2.80;;;1.23;;
61317;SDS011;47201;40.428;-8.436;2023-07-29T12:32:10;1.70;;;1.48;;
61317;SDS011;47201;40.428;-8.436;2023-07-29T12:34:16;1.55;;;1.20;;
61317;SDS011;47201;40.428;-8.436;2023-07-29T12:36:19;1.20;;;1.20;;
61317;SDS011;47201;40.428;-8.436;2023-07-29T12:38:22;2.72;;;1.20;;
61317;SDS011;47201;40.428;-8.436;2023-07-29T12:40:23;2.00;;;1.20;;
61317;SDS011;47201;40.428;-8.436;2023-07-29T12:42:27;1.20;;;1.20;;
61317;SDS011;47201;40.428;-8.436;2023-07-29T12:44:34;1.00;;;1.00;;
61317;SDS011;47201;40.428;-8.436;2023-07-29T12:46:36;1.10;;;1.10;;
61317;SDS011;47201;40.428;-8.436;2023-07-29T12:48:36;1.30;;;1.20;;
61317;SDS011;47201;40.428;-8.436;2023-07-29T12:50:37;1.40;;;1.30;;
61317;SDS011;47201;40.428;-8.436;2023-07-29T12:52:38;3.88;;;1.10;;
61317;SDS011;47201;40.428;-8.436;2023-07-29T12:54:40;1.20;;;1.10;;
61317;SDS011;47201;40.428;-8.436;2023-07-29T12:56:41;2.60;;;1.10;;
61317;SDS011;47201;40.428;-8.436;2023-07-29T12:58:42;1.98;;;1.40;;
61317;SDS011;47201;40.428;-8.436;2023-07-29T13:00:43;1.65;;;1.55;;
61317;SDS011;47201;40.428;-8.436;2023-07-29T13:02:43;1.60;;;1.50;;
61317;SDS011;47201;40.428;-8.436;2023-07-29T13:04:44;1.83;;;1.73;;
61317;SDS011;47201;40.428;-8.436;2023-07-29T13:06:45;2.15;;;1.50;;
61317;SDS011;47201;40.428;-8.436;2023-07-29T13:08:45;1.60;;;1.60;;
61317;SDS011;47201;40.428;-8.436;2023-07-29T13:10:47;1.77;;;1.67;;
61317;SDS011;47201;40.428;-8.436;2023-07-29T13:12:47;3.78;;;1.75;;
61317;SDS011;47201;40.428;-8.436;2023-07-29T13:14:49;3.05;;;1.98;;
61317;SDS011;47201;40.428;-8.436;2023-07-29T13:16:49;5.93;;;1.55;;
61317;SDS011;47201;40.428;-8.436;2023-07-29T13:18:50;3.47;;;2.15;;
61317;SDS011;47201;40.428;-8.436;2023-07-29T13:20:50;2.55;;;2.28;;
61317;SDS011;47201;40.428;-8.436;2023-07-29T13:22:51;3.25;;;2.10;;
61317;SDS011;47201;40.428;-8.436;2023-07-29T13:24:52;4.32;;;2.40;;
61317;SDS011;47201;40.428;-8.436;2023-07-29T13:26:52;3.22;;;2.28;;
61317;SDS011;47201;40.428;-8.436;2023-07-29T13:28:53;2.33;;;2.10;;
61317;SDS011;47201;40.428;-8.436;2023-07-29T13:30:55;2.72;;;2.20;;
61317;SDS011;47201;40.428;-8.436;2023-07-29T13:32:56;2.10;;;1.90;;
61317;SDS011;47201;40.428;-8.436;2023-07-29T13:34:57;2.65;;;2.05;;
61317;SDS011;47201;40.428;-8.436;2023-07-29T13:36:57;1.90;;;1.80;;
61317;SDS011;47201;40.428;-8.436;2023-07-29T13:38:58;2.45;;;1.98;;
61317;SDS011;47201;40.428;-8.436;2023-07-29T13:40:58;2.33;;;2.05;;
61317;SDS011;47201;40.428;-8.436;2023-07-29T13:42:59;3.08;;;2.22;;
61317;SDS011;47201;40.428;-8.436;2023-07-29T13:45:00;3.97;;;2.10;;
61317;SDS011;47201;40.428;-8.436;2023-07-29T13:47:02;3.25;;;2.20;;
61317;SDS011;47201;40.428;-8.436;2023-07-29T13:49:02;2.33;;;2.13;;
61317;SDS011;47201;40.428;-8.436;2023-07-29T13:51:03;7.93;;;2.22;;
61317;SDS011;47201;40.428;-8.436;2023-07-29T13:53:04;3.13;;;2.00;;
61317;SDS011;47201;40.428;-8.436;2023-07-29T13:55:04;2.42;;;1.73;;
61317;SDS011;47201;40.428;-8.436;2023-07-29T13:57:06;2.72;;;2.15;;
61317;SDS011;47201;40.428;-8.436;2023-07-29T13:59:07;4.95;;;2.50;;
61317;SDS011;47201;40.428;-8.436;2023-07-29T14:01:07;2.53;;;2.10;;
61317;SDS011;47201;40.428;-8.436;2023-07-29T14:03:08;3.75;;;2.30;;
61317;SDS011;47201;40.428;-8.436;2023-07-29T14:05:08;3.15;;;1.95;;
61317;SDS011;47201;40.428;-8.436;2023-07-29T14:07:09;2.67;;;1.65;;
61317;SDS011;47201;40.428;-8.436;2023-07-29T14:09:10;1.95;;;1.48;;
61317;SDS011;47201;40.428;-8.436;2023-07-29T14:11:10;2.67;;;1.70;;
61317;SDS011;47201;40.428;-8.436;2023-07-29T14:13:11;2.53;;;1.70;;
61317;SDS011;47201;40.428;-8.436;2023-07-29T14:15:12;2.70;;;1.63;;
61317;SDS011;47201;40.428;-8.436;2023-07-29T14:17:12;2.28;;;1.88;;
61317;SDS011;47201;40.428;-8.436;2023-07-29T14:19:13;2.42;;;1.92;;
61317;SDS011;47201;40.428;-8.436;2023-07-29T14:21:14;2.40;;;1.55;;
61317;SDS011;47201;40.428;-8.436;2023-07-29T14:23:15;1.67;;;1.40;;
61317;SDS011;47201;40.428;-8.436;2023-07-29T14:25:15;1.45;;;1.40;;
61317;SDS011;47201;40.428;-8.436;2023-07-29T14:27:16;2.33;;;1.67;;
61317;SDS011;47201;40.428;-8.436;2023-07-29T14:29:17;2.55;;;1.63;;
61317;SDS011;47201;40.428;-8.436;2023-07-29T14:31:19;2.17;;;1.90;;